ECS Airport (Mondell Field) Information

FAA: ECS - ICAO: KECS

ECS Airport Location

State Wyoming
County Weston
City Newcastle
ECS Airport is 5 miles northwest of Newcastle, WY.
Latitude 43-53-03.3000N
Longitude 104-18-52.2000W
Elevation 4,177ft

KECS Airport METARs

METAR KECS 281335Z AUTO 32009KT 10SM CLR 00/M05 A3019 RMK AO2
Altimeter 30.19"
Temperature 0.0°C (32.0°F)
Wind 320° at 9KT
Clouds Skies are clear.
Visibility 10.0mi
Time observed: 2021-10-28T13:35:00Z

ECS Airport Details

Status Operational
Activation December 1938
Ownership Public
Usage Public
Chart CHEYENNE
ATC on-site No
Beacon schedule sunset-sunrise
Beacon color clear green

ECS Airport Contacts

Owner CITY OF NEWCASTLE/WESTON CO
Owner address COUNTY COURT HOUSE/1 W MAIN, NEWCASTLE, WY 82701
Owner phone 307-746-4744
Manager WILLIAM BRIDGES
Manager address P.O. BOX 29, BASIN, WY 82410
Manager phone 307-568-2551

ECS Airport (Mondell Field) Radio Frequencies

ECS (Airport) Radio Frequencies

UNICOM 122.8
Common traffic advisory frequency (CTAF) 122.8